createdAt,value
2022-09-18T00:00:59.986Z,6.03
2022-09-18T00:01:59.988Z,6.03
2022-09-18T00:03:00.021Z,6.06
2022-09-18T00:03:59.946Z,6.07
2022-09-18T00:05:00.027Z,6.09
2022-09-18T00:05:59.927Z,6.03
2022-09-18T00:06:59.925Z,6.06
2022-09-18T00:07:59.911Z,6.04
2022-09-18T00:08:59.982Z,6.06
2022-09-18T00:09:59.887Z,6.04
2022-09-18T00:10:59.910Z,6.07
2022-09-18T00:11:59.863Z,6.09
2022-09-18T00:12:59.859Z,6.04
2022-09-18T00:13:59.840Z,6.03
2022-09-18T00:14:59.831Z,6.03
2022-09-18T00:15:59.871Z,5.93
2022-09-18T00:16:59.848Z,5.92
2022-09-18T00:17:59.800Z,5.88
2022-09-18T00:18:59.790Z,5.88
2022-09-18T00:19:59.780Z,5.93
2022-09-18T00:20:59.771Z,5.93
2022-09-18T00:21:59.753Z,5.92
2022-09-18T00:22:59.790Z,5.93
2022-09-18T00:23:59.825Z,5.98
2022-09-18T00:24:59.733Z,6.00
2022-09-18T00:25:59.713Z,6.04
2022-09-18T00:26:59.710Z,6.07
2022-09-18T00:27:59.694Z,6.11
2022-09-18T00:28:59.723Z,6.14
2022-09-18T00:29:59.673Z,6.16
2022-09-18T00:30:59.689Z,6.07
2022-09-18T00:31:59.653Z,6.03
2022-09-18T00:32:59.651Z,6.01
2022-09-18T00:33:59.634Z,5.85
2022-09-18T00:34:59.653Z,5.75
2022-09-18T00:35:59.615Z,5.73
2022-09-18T00:36:59.613Z,5.73
2022-09-18T00:37:59.584Z,5.73
2022-09-18T00:38:59.679Z,5.74
2022-09-18T00:39:59.582Z,5.75
2022-09-18T00:40:59.594Z,5.81
2022-09-18T00:41:59.546Z,5.89
2022-09-18T00:42:59.542Z,5.95
2022-09-18T00:43:59.527Z,5.95
2022-09-18T00:44:59.525Z,5.98
2022-09-18T00:45:59.506Z,6.00
2022-09-18T00:46:59.629Z,6.04
2022-09-18T00:47:59.487Z,6.07
2022-09-18T00:48:59.479Z,6.07
2022-09-18T00:49:59.468Z,6.09
2022-09-18T00:50:59.466Z,6.06
2022-09-18T00:51:59.445Z,6.07
2022-09-18T00:52:59.473Z,6.06
2022-09-18T00:53:59.430Z,5.88
2022-09-18T00:54:59.418Z,5.75
2022-09-18T00:55:59.407Z,5.68
2022-09-18T00:56:59.398Z,5.66
2022-09-18T00:57:59.389Z,5.46
2022-09-18T00:58:59.406Z,5.31
2022-09-18T00:59:59.368Z,5.14
2022-09-18T01:00:59.379Z,5.05
2022-09-18T01:01:59.367Z,4.98
2022-09-18T01:02:59.340Z,4.94
2022-09-18T01:03:59.326Z,4.88
2022-09-18T01:04:59.353Z,4.84
2022-09-18T01:05:59.307Z,4.88
2022-09-18T01:06:59.299Z,4.80
2022-09-18T01:07:59.289Z,4.83
2022-09-18T01:08:59.359Z,4.88
2022-09-18T01:09:59.264Z,4.92
2022-09-18T01:10:59.281Z,4.96
2022-09-18T01:11:59.242Z,4.99
2022-09-18T01:12:59.242Z,5.04
2022-09-18T01:13:59.220Z,5.12
2022-09-18T01:14:59.220Z,5.17
2022-09-18T01:15:59.266Z,5.25
2022-09-18T01:16:59.234Z,5.28
2022-09-18T01:17:59.189Z,5.32
2022-09-18T01:18:59.181Z,5.37
2022-09-18T01:19:59.165Z,5.41
2022-09-18T01:20:59.152Z,5.41
2022-09-18T01:21:59.142Z,5.41
2022-09-18T01:22:59.163Z,5.32
2022-09-18T01:23:59.143Z,5.28
2022-09-18T01:24:59.122Z,5.27
2022-09-18T01:25:59.094Z,5.28
2022-09-18T01:26:59.101Z,5.31
2022-09-18T01:27:59.081Z,5.34
2022-09-18T01:28:59.104Z,5.35
2022-09-18T01:29:59.062Z,5.43
2022-09-18T01:30:59.075Z,5.50
2022-09-18T01:31:59.045Z,5.59
2022-09-18T01:32:59.040Z,5.64
2022-09-18T01:33:59.015Z,5.57
2022-09-18T01:34:59.048Z,5.57
2022-09-18T01:35:58.997Z,5.46
2022-09-18T01:36:59.007Z,5.38
2022-09-18T01:37:58.975Z,5.45
2022-09-18T01:38:59.022Z,5.49
2022-09-18T01:39:59.040Z,5.57
2022-09-18T01:40:58.977Z,5.68
2022-09-18T01:41:58.936Z,5.73
2022-09-18T01:42:58.929Z,5.75
2022-09-18T01:43:58.917Z,5.82
2022-09-18T01:44:58.908Z,5.83
2022-09-18T01:45:58.899Z,5.86
2022-09-18T01:46:58.967Z,5.88
2022-09-18T01:47:58.880Z,5.89
2022-09-18T01:48:58.869Z,5.89
2022-09-18T01:49:58.860Z,5.91
2022-09-18T01:50:58.850Z,5.91
2022-09-18T01:51:58.830Z,5.89
2022-09-18T01:52:58.867Z,5.89
2022-09-18T01:53:58.895Z,5.93
2022-09-18T01:54:58.809Z,5.96
2022-09-18T01:55:58.789Z,6.00
2022-09-18T01:56:58.786Z,6.03
2022-09-18T01:57:58.779Z,6.04
2022-09-18T01:58:58.801Z,6.07
2022-09-18T01:59:58.752Z,6.07
2022-09-18T02:00:58.750Z,6.01
2022-09-18T02:01:58.836Z,5.95
2022-09-18T02:02:58.742Z,5.93
2022-09-18T02:04:01.501Z,5.91
2022-09-18T02:04:58.756Z,5.89
2022-09-18T02:05:58.698Z,5.71
2022-09-18T02:06:58.691Z,5.60
2022-09-18T02:07:58.671Z,5.53
2022-09-18T02:08:58.695Z,5.46
2022-09-18T02:09:58.653Z,5.31
2022-09-18T02:10:58.672Z,5.14
2022-09-18T02:11:58.635Z,5.07
2022-09-18T02:12:58.625Z,4.98
2022-09-18T02:13:58.614Z,4.95
2022-09-18T02:14:58.613Z,4.88
2022-09-18T02:15:58.661Z,4.79
2022-09-18T02:16:58.606Z,4.76
2022-09-18T02:17:58.574Z,4.77
2022-09-18T02:18:58.564Z,4.77
2022-09-18T02:19:58.544Z,4.80
2022-09-18T02:20:58.545Z,4.84
2022-09-18T02:21:58.535Z,4.83
2022-09-18T02:22:58.553Z,4.89
2022-09-18T02:23:58.506Z,4.98
2022-09-18T02:24:58.496Z,5.05
2022-09-18T02:25:58.500Z,5.13
2022-09-18T02:26:58.487Z,5.19
2022-09-18T02:27:58.468Z,5.27
2022-09-18T02:28:58.505Z,5.37
2022-09-18T02:29:58.455Z,5.46
2022-09-18T02:30:58.486Z,5.52
2022-09-18T02:31:58.427Z,5.63
2022-09-18T02:32:58.427Z,5.64
2022-09-18T02:33:58.409Z,5.66
2022-09-18T02:34:58.434Z,5.71
2022-09-18T02:35:58.386Z,5.75
2022-09-18T02:36:58.386Z,5.77
2022-09-18T02:37:58.366Z,5.75
2022-09-18T02:38:58.358Z,5.78
2022-09-18T02:39:58.378Z,5.82
2022-09-18T02:40:58.378Z,5.85
2022-09-18T02:41:58.327Z,5.85
2022-09-18T02:42:58.325Z,5.88
2022-09-18T02:43:58.309Z,5.86
2022-09-18T02:44:58.298Z,5.86
2022-09-18T02:45:58.279Z,5.85
2022-09-18T02:46:58.368Z,5.81
2022-09-18T02:47:58.260Z,5.78
2022-09-18T02:48:58.251Z,5.77
2022-09-18T02:49:58.251Z,5.81
2022-09-18T02:50:58.232Z,5.81
2022-09-18T02:51:58.221Z,5.82
2022-09-18T02:52:58.250Z,5.82
2022-09-18T02:53:58.210Z,5.81
2022-09-18T02:54:58.201Z,5.82
2022-09-18T02:55:58.195Z,5.81
2022-09-18T02:56:58.171Z,5.77
2022-09-18T02:57:58.168Z,5.77
2022-09-18T02:58:58.180Z,5.75
2022-09-18T02:59:58.144Z,5.70
2022-09-18T03:00:58.133Z,5.67
2022-09-18T03:01:58.230Z,5.63
2022-09-18T03:02:58.214Z,5.60
2022-09-18T03:03:58.102Z,5.60
2022-09-18T03:04:58.128Z,5.57
2022-09-18T03:05:58.084Z,5.56
2022-09-18T03:06:58.072Z,5.59
2022-09-18T03:07:58.064Z,5.59
2022-09-18T03:08:58.054Z,5.59
2022-09-18T03:09:58.044Z,5.60
2022-09-18T03:10:58.064Z,5.63
2022-09-18T03:11:58.026Z,5.64
2022-09-18T03:12:58.006Z,5.68
2022-09-18T03:13:58.006Z,5.68
2022-09-18T03:14:57.992Z,5.71
2022-09-18T03:15:58.011Z,5.71
2022-09-18T03:16:57.998Z,5.74
2022-09-18T03:17:57.966Z,5.78
2022-09-18T03:18:57.943Z,5.81
2022-09-18T03:19:57.944Z,5.85
2022-09-18T03:20:57.927Z,5.89
2022-09-18T03:21:57.915Z,5.92
2022-09-18T03:22:57.947Z,5.95
2022-09-18T03:23:57.909Z,6.00
2022-09-18T03:24:57.886Z,6.06
2022-09-18T03:25:57.877Z,6.09
2022-09-18T03:26:57.858Z,6.13
2022-09-18T03:27:57.857Z,6.16
2022-09-18T03:28:57.872Z,6.19
2022-09-18T03:29:57.849Z,6.25
2022-09-18T03:30:57.855Z,6.28
2022-09-18T03:31:57.891Z,6.30
2022-09-18T03:32:57.812Z,6.32
2022-09-18T03:33:57.799Z,6.38
2022-09-18T03:34:57.837Z,6.41
2022-09-18T03:35:57.781Z,6.44
2022-09-18T03:36:57.760Z,6.48
2022-09-18T03:37:57.758Z,6.53
2022-09-18T03:38:57.748Z,6.54
2022-09-18T03:39:57.792Z,6.56
2022-09-18T03:40:57.761Z,6.58
2022-09-18T03:41:57.710Z,6.59
2022-09-18T03:42:57.700Z,6.62
2022-09-18T03:43:57.693Z,6.65
2022-09-18T03:44:57.680Z,6.68
2022-09-18T03:45:57.673Z,6.69
2022-09-18T03:46:57.765Z,6.73
2022-09-18T03:47:57.653Z,6.73
2022-09-18T03:48:57.642Z,6.73
2022-09-18T03:49:57.640Z,6.73
2022-09-18T03:50:57.622Z,6.72
2022-09-18T03:51:57.617Z,6.72
2022-09-18T03:52:57.636Z,6.73
2022-09-18T03:53:57.583Z,6.72
2022-09-18T03:54:57.583Z,6.71
2022-09-18T03:55:57.563Z,6.69
2022-09-18T03:56:57.556Z,6.69
2022-09-18T03:57:57.553Z,6.68
2022-09-18T03:58:57.565Z,6.66
2022-09-18T03:59:57.532Z,6.66
2022-09-18T04:00:57.521Z,6.66
2022-09-18T04:01:57.718Z,6.66
2022-09-18T04:02:57.541Z,6.66
2022-09-18T04:03:57.484Z,6.68
2022-09-18T04:04:57.507Z,6.63
2022-09-18T04:05:57.457Z,6.63
2022-09-18T04:06:57.453Z,6.62
2022-09-18T04:07:57.446Z,6.65
2022-09-18T04:08:57.443Z,6.63
2022-09-18T04:09:57.425Z,6.62
2022-09-18T04:10:57.444Z,6.59
2022-09-18T04:11:57.397Z,6.53
2022-09-18T04:12:57.394Z,6.53
2022-09-18T04:13:57.383Z,6.54
2022-09-18T04:14:57.380Z,6.56
2022-09-18T04:15:57.423Z,6.58
2022-09-18T04:16:57.377Z,6.58
2022-09-18T04:17:57.309Z,6.54
2022-09-18T04:18:57.277Z,6.51
2022-09-18T04:19:57.266Z,6.50
2022-09-18T04:20:57.257Z,6.47
2022-09-18T04:21:57.249Z,6.46
2022-09-18T04:22:57.322Z,6.43
2022-09-18T04:23:57.230Z,6.44
2022-09-18T04:24:57.219Z,6.44
2022-09-18T04:25:57.198Z,6.47
2022-09-18T04:26:57.189Z,6.54
2022-09-18T04:27:57.192Z,6.58
2022-09-18T04:28:57.213Z,6.61
2022-09-18T04:29:57.160Z,6.68
2022-09-18T04:30:57.196Z,6.66
2022-09-18T04:31:57.132Z,6.73
2022-09-18T04:32:57.132Z,6.77
2022-09-18T04:33:57.114Z,6.80
2022-09-18T04:34:57.149Z,6.81
2022-09-18T04:35:57.114Z,6.84
2022-09-18T04:36:57.081Z,6.86
2022-09-18T04:37:57.083Z,6.89
2022-09-18T04:38:57.062Z,6.89
2022-09-18T04:39:57.123Z,6.94
2022-09-18T04:40:57.081Z,6.97
2022-09-18T04:41:57.057Z,7.01
2022-09-18T04:42:57.023Z,7.04
2022-09-18T04:43:57.015Z,7.04
2022-09-18T04:44:57.005Z,7.05
2022-09-18T04:45:56.984Z,7.07
2022-09-18T04:46:57.064Z,7.07
2022-09-18T04:47:56.975Z,7.08
2022-09-18T04:48:56.965Z,7.07
2022-09-18T04:49:56.952Z,7.05
2022-09-18T04:50:56.946Z,7.07
2022-09-18T04:51:56.936Z,7.08
2022-09-18T04:52:56.952Z,7.09
2022-09-18T04:53:56.906Z,7.12
2022-09-18T04:54:56.903Z,7.13
2022-09-18T04:55:56.886Z,7.13
2022-09-18T04:56:56.882Z,7.15
2022-09-18T04:57:56.877Z,7.15
2022-09-18T04:58:56.884Z,7.19
2022-09-18T04:59:56.853Z,7.20
2022-09-18T05:00:56.931Z,7.20
2022-09-18T05:01:56.862Z,7.20
2022-09-18T05:02:56.817Z,7.23
2022-09-18T05:03:56.813Z,7.23
2022-09-18T05:04:56.818Z,7.26
2022-09-18T05:05:56.793Z,7.29
2022-09-18T05:06:56.777Z,7.31
2022-09-18T05:07:56.768Z,7.32
2022-09-18T05:08:56.757Z,7.34
2022-09-18T05:09:56.749Z,7.35
2022-09-18T05:10:56.761Z,7.38
2022-09-18T05:11:56.720Z,7.40
2022-09-18T05:12:56.716Z,7.41
2022-09-18T05:13:56.794Z,7.42
2022-09-18T05:14:56.691Z,7.44
2022-09-18T05:15:56.712Z,7.45
2022-09-18T05:16:56.699Z,7.47
2022-09-18T05:17:56.663Z,7.49
2022-09-18T05:18:56.652Z,7.52
2022-09-18T05:19:56.640Z,7.52
2022-09-18T05:20:56.633Z,7.55
2022-09-18T05:21:56.612Z,7.58
2022-09-18T05:22:56.640Z,7.59
2022-09-18T05:23:56.591Z,7.60
2022-09-18T05:24:56.593Z,7.62
2022-09-18T05:25:56.574Z,7.63
2022-09-18T05:26:56.562Z,7.66
2022-09-18T05:27:56.562Z,7.66
2022-09-18T05:28:56.582Z,7.71
2022-09-18T05:29:56.524Z,7.72
2022-09-18T05:30:56.594Z,7.75
2022-09-18T05:31:56.510Z,7.77
2022-09-18T05:32:58.880Z,7.79
2022-09-18T05:33:56.483Z,7.82
2022-09-18T05:34:56.504Z,7.84
2022-09-18T05:35:56.465Z,7.87
2022-09-18T05:36:56.454Z,7.90
2022-09-18T05:37:56.456Z,7.92
2022-09-18T05:38:56.443Z,7.94
2022-09-18T05:39:56.490Z,7.96
2022-09-18T05:40:56.445Z,7.99
2022-09-18T05:41:56.404Z,8.02
2022-09-18T05:42:56.397Z,8.04
2022-09-18T05:43:56.384Z,8.04
2022-09-18T05:44:59.893Z,8.10
2022-09-18T05:45:57.389Z,8.14
2022-09-18T05:46:56.404Z,8.15
2022-09-18T05:47:56.347Z,8.20
2022-09-18T05:48:56.328Z,8.22
2022-09-18T05:49:56.325Z,8.28
2022-09-18T05:50:56.308Z,8.29
2022-09-18T05:51:56.338Z,8.32
2022-09-18T05:52:56.294Z,8.36
2022-09-18T05:53:56.278Z,8.39
2022-09-18T05:54:56.269Z,8.42
2022-09-18T05:55:56.251Z,8.47
2022-09-18T05:56:56.246Z,8.50
2022-09-18T05:57:56.267Z,8.54
2022-09-18T05:58:56.228Z,8.55
2022-09-18T05:59:56.224Z,8.60
2022-09-18T06:00:56.220Z,8.63
2022-09-18T06:01:56.248Z,8.69
2022-09-18T06:02:56.250Z,8.73
2022-09-18T06:03:56.200Z,8.78
2022-09-18T06:04:56.168Z,8.81
2022-09-18T06:05:56.149Z,8.87
2022-09-18T06:06:56.140Z,8.91
2022-09-18T06:07:59.630Z,8.97
2022-09-18T06:08:56.120Z,9.02
2022-09-18T06:09:56.141Z,9.06
2022-09-18T06:10:56.102Z,9.10
2022-09-18T06:11:56.093Z,9.16
2022-09-18T06:12:56.083Z,9.18
2022-09-18T06:13:56.064Z,9.23
2022-09-18T06:14:56.062Z,9.25
2022-09-18T06:15:56.104Z,9.28
2022-09-18T06:16:56.040Z,9.32
2022-09-18T06:17:56.033Z,9.38
2022-09-18T06:18:56.014Z,9.39
2022-09-18T06:19:56.013Z,9.43
2022-09-18T06:20:56.003Z,9.45
2022-09-18T06:21:56.014Z,9.48
2022-09-18T06:22:55.976Z,9.50
2022-09-18T06:23:55.965Z,9.52
2022-09-18T06:24:55.964Z,9.57
2022-09-18T06:25:55.948Z,9.61
2022-09-18T06:26:55.955Z,9.64
2022-09-18T06:27:55.953Z,9.66
2022-09-18T06:28:55.908Z,9.68
2022-09-18T06:29:55.897Z,9.71
2022-09-18T06:30:55.954Z,9.73
2022-09-18T06:31:55.915Z,9.78
2022-09-18T06:32:55.868Z,9.82
2022-09-18T06:33:55.889Z,9.82
2022-09-18T06:34:55.858Z,9.85
2022-09-18T06:35:55.838Z,9.86
2022-09-18T06:36:55.835Z,9.89
2022-09-18T06:37:55.827Z,9.91
2022-09-18T06:38:55.815Z,9.93
2022-09-18T06:39:55.851Z,9.97
2022-09-18T06:40:55.791Z,10.00
2022-09-18T06:41:55.779Z,10.00
2022-09-18T06:42:55.770Z,10.00
2022-09-18T06:43:55.752Z,10.00
2022-09-18T06:44:55.762Z,10.00
2022-09-18T06:45:55.772Z,9.96
2022-09-18T06:46:55.816Z,9.97
2022-09-18T06:47:55.731Z,9.99
2022-09-18T06:48:55.709Z,9.93
2022-09-18T06:49:55.692Z,9.89
2022-09-18T06:50:55.683Z,9.89
2022-09-18T06:51:55.703Z,9.86
2022-09-18T06:52:55.664Z,9.82
2022-09-18T06:53:55.647Z,9.76
2022-09-18T06:54:55.644Z,9.75
2022-09-18T06:55:55.632Z,9.75
2022-09-18T06:56:55.635Z,9.75
2022-09-18T06:57:55.645Z,9.76
2022-09-18T06:58:55.602Z,9.78
2022-09-18T06:59:55.586Z,9.81
2022-09-18T07:00:55.615Z,9.85
2022-09-18T07:01:55.661Z,9.88
2022-09-18T07:02:55.557Z,9.91
2022-09-18T07:03:55.585Z,9.91
2022-09-18T07:04:55.538Z,9.91
2022-09-18T07:05:55.527Z,9.93
2022-09-18T07:06:55.517Z,9.94
2022-09-18T07:07:55.517Z,9.94
2022-09-18T07:08:55.504Z,9.91
2022-09-18T07:09:55.518Z,9.86
2022-09-18T07:10:55.468Z,9.88
2022-09-18T07:11:55.467Z,9.91
2022-09-18T07:12:55.455Z,9.94
2022-09-18T07:13:55.465Z,9.94
2022-09-18T07:14:55.428Z,9.91
2022-09-18T07:15:55.509Z,9.91
2022-09-18T07:16:55.412Z,9.91
2022-09-18T07:17:55.409Z,9.94
2022-09-18T07:18:55.390Z,9.99
2022-09-18T07:19:55.381Z,10.01
2022-09-18T07:20:55.367Z,10.07
2022-09-18T07:21:55.396Z,10.07
2022-09-18T07:22:55.355Z,10.10
2022-09-18T07:23:55.344Z,10.12
2022-09-18T07:24:55.332Z,10.12
2022-09-18T07:25:55.324Z,10.15
2022-09-18T07:26:55.301Z,10.14
2022-09-18T07:27:55.323Z,10.17
2022-09-18T07:28:55.285Z,10.22
2022-09-18T07:29:55.274Z,10.28
2022-09-18T07:30:55.313Z,10.33
2022-09-18T07:31:55.263Z,10.39
2022-09-18T07:32:55.243Z,10.43
2022-09-18T07:33:55.266Z,10.51
2022-09-18T07:34:55.224Z,10.53
2022-09-18T07:35:55.216Z,10.60
2022-09-18T07:36:55.203Z,10.66
2022-09-18T07:37:55.197Z,10.70
2022-09-18T07:38:55.175Z,10.74
2022-09-18T07:39:55.261Z,10.74
2022-09-18T07:40:55.156Z,10.76
2022-09-18T07:41:55.145Z,10.77
2022-09-18T07:42:55.135Z,10.80
2022-09-18T07:43:55.127Z,10.80
2022-09-18T07:44:55.116Z,10.81
2022-09-18T07:45:55.145Z,10.86
2022-09-18T07:46:55.153Z,10.84
2022-09-18T07:47:55.102Z,10.86
2022-09-18T07:48:55.072Z,10.91
2022-09-18T07:49:55.067Z,10.92
2022-09-18T07:50:55.050Z,10.99
2022-09-18T07:51:55.084Z,10.98
2022-09-18T07:52:55.041Z,11.01
2022-09-18T07:53:55.022Z,10.99
2022-09-18T07:54:55.017Z,11.06
2022-09-18T07:55:55.000Z,11.10
2022-09-18T07:56:54.992Z,11.20
2022-09-18T07:57:55.023Z,11.36
2022-09-18T07:58:54.962Z,11.44
2022-09-18T07:59:54.960Z,11.57
2022-09-18T08:00:54.949Z,11.64
2022-09-18T08:01:55.054Z,11.67
2022-09-18T08:02:55.030Z,11.72
2022-09-18T08:03:54.944Z,11.80
2022-09-18T08:04:54.903Z,11.82
2022-09-18T08:05:54.891Z,11.75
2022-09-18T08:06:54.880Z,11.82
2022-09-18T08:07:54.886Z,11.75
2022-09-18T08:08:55.257Z,11.74
2022-09-18T08:09:54.874Z,11.87
2022-09-18T08:10:54.835Z,12.01
2022-09-18T08:11:54.826Z,12.20
2022-09-18T08:12:54.818Z,12.57
2022-09-18T08:13:54.803Z,12.87
2022-09-18T08:14:54.787Z,13.00
2022-09-18T08:15:54.892Z,12.97
2022-09-18T08:16:54.768Z,12.87
2022-09-18T08:17:54.766Z,12.78
2022-09-18T08:18:54.751Z,12.78
2022-09-18T08:19:54.749Z,12.77
2022-09-18T08:20:54.729Z,12.71
2022-09-18T08:21:54.747Z,12.51
2022-09-18T08:22:54.708Z,12.31
2022-09-18T08:23:54.697Z,12.33
2022-09-18T08:24:54.688Z,12.42
2022-09-18T08:25:54.684Z,12.52
2022-09-18T08:26:54.668Z,12.59
2022-09-18T08:27:54.698Z,12.77
2022-09-18T08:28:54.653Z,12.88
2022-09-18T08:29:54.637Z,12.84
2022-09-18T08:30:54.628Z,12.88
2022-09-18T08:31:54.698Z,13.17
2022-09-18T08:32:54.601Z,13.56
2022-09-18T08:33:54.621Z,13.77
2022-09-18T08:34:54.592Z,13.51
2022-09-18T08:35:54.573Z,13.41
2022-09-18T08:36:54.558Z,13.12
2022-09-18T08:37:54.560Z,12.87
2022-09-18T08:38:54.532Z,12.62
2022-09-18T08:39:54.594Z,12.37
2022-09-18T08:40:54.520Z,12.12
2022-09-18T08:41:54.513Z,11.99
2022-09-18T08:42:54.504Z,11.89
2022-09-18T08:43:54.484Z,11.83
2022-09-18T08:44:54.477Z,11.77
2022-09-18T08:45:54.492Z,11.77
2022-09-18T08:46:54.545Z,12.01
2022-09-18T08:47:54.456Z,12.42
2022-09-18T08:48:54.433Z,12.69
2022-09-18T08:49:54.426Z,12.89
2022-09-18T08:50:54.407Z,13.11
2022-09-18T08:51:54.427Z,13.36
2022-09-18T08:52:54.387Z,13.61
2022-09-18T08:53:54.378Z,13.89
2022-09-18T08:54:54.368Z,14.19
2022-09-18T08:55:54.357Z,14.37
2022-09-18T08:56:54.339Z,14.39
2022-09-18T08:57:54.375Z,14.43
2022-09-18T08:58:54.320Z,14.37
2022-09-18T08:59:54.315Z,14.17
2022-09-18T09:00:54.365Z,13.99
2022-09-18T09:01:54.331Z,13.65
2022-09-18T09:02:54.279Z,13.33
2022-09-18T09:03:54.751Z,13.25
2022-09-18T09:04:54.261Z,13.27
2022-09-18T09:05:54.250Z,13.25
2022-09-18T09:06:54.242Z,13.41
2022-09-18T09:07:54.232Z,13.52
2022-09-18T09:08:54.221Z,13.70
2022-09-18T09:09:54.244Z,13.74
2022-09-18T09:10:54.202Z,13.77
2022-09-18T09:11:54.199Z,13.91
2022-09-18T09:12:54.181Z,14.10
2022-09-18T09:13:54.163Z,14.20
2022-09-18T09:14:57.507Z,14.27
2022-09-18T09:15:54.234Z,14.31
2022-09-18T09:16:54.144Z,14.27
2022-09-18T09:17:54.136Z,14.28
2022-09-18T09:18:54.114Z,14.21
2022-09-18T09:19:54.106Z,14.24
2022-09-18T09:20:54.098Z,14.27
2022-09-18T09:21:54.119Z,14.29
2022-09-18T09:22:54.076Z,14.13
2022-09-18T09:23:54.070Z,13.98
2022-09-18T09:24:54.049Z,13.89
2022-09-18T09:25:54.058Z,13.84
2022-09-18T09:26:54.035Z,13.70
2022-09-18T09:27:54.057Z,13.63
2022-09-18T09:28:54.010Z,13.70
2022-09-18T09:29:54.005Z,13.67
2022-09-18T09:30:53.989Z,13.63
2022-09-18T09:31:54.014Z,13.51
2022-09-18T09:32:53.971Z,13.47
2022-09-18T09:33:53.988Z,13.56
2022-09-18T09:34:53.950Z,13.59
2022-09-18T09:35:53.939Z,13.59
2022-09-18T09:36:53.931Z,13.71
2022-09-18T09:37:53.922Z,13.79
2022-09-18T09:38:53.905Z,13.80
2022-09-18T09:39:53.955Z,13.69
2022-09-18T09:40:53.884Z,13.47
2022-09-18T09:41:53.875Z,13.38
2022-09-18T09:42:53.862Z,13.32
2022-09-18T09:43:53.856Z,13.30
2022-09-18T09:44:53.842Z,13.24
2022-09-18T09:45:53.864Z,13.17
2022-09-18T09:46:53.856Z,13.11
2022-09-18T09:47:53.814Z,13.02
2022-09-18T09:48:53.805Z,12.93
2022-09-18T09:49:53.798Z,12.96
2022-09-18T09:50:53.777Z,12.99
2022-09-18T09:51:53.803Z,12.96
2022-09-18T09:52:53.756Z,13.06
2022-09-18T09:53:53.753Z,13.18
2022-09-18T09:54:53.736Z,13.30
2022-09-18T09:55:53.735Z,13.43
2022-09-18T09:56:53.716Z,13.55
2022-09-18T09:57:53.735Z,13.59
2022-09-18T09:58:53.699Z,13.65
2022-09-18T09:59:53.690Z,13.70
2022-09-18T10:00:53.720Z,13.83
2022-09-18T10:01:53.707Z,13.91
2022-09-18T10:02:53.658Z,13.96
2022-09-18T10:03:53.680Z,14.10
2022-09-18T10:04:53.631Z,14.25
2022-09-18T10:05:54.013Z,14.34
2022-09-18T10:06:53.619Z,14.37
2022-09-18T10:07:53.609Z,14.49
2022-09-18T10:08:53.591Z,14.54
2022-09-18T10:09:53.622Z,14.50
2022-09-18T10:10:53.573Z,14.60
2022-09-18T10:11:57.096Z,14.83
2022-09-18T10:12:53.553Z,14.87
2022-09-18T10:13:53.546Z,14.88
2022-09-18T10:14:53.533Z,15.05
2022-09-18T10:15:53.588Z,15.24
2022-09-18T10:16:53.512Z,15.46
2022-09-18T10:17:53.506Z,15.66
2022-09-18T10:18:53.486Z,15.61
2022-09-18T10:19:53.483Z,15.68
2022-09-18T10:20:53.465Z,15.75
2022-09-18T10:21:53.480Z,15.79
2022-09-18T10:22:53.444Z,15.75
2022-09-18T10:23:53.435Z,15.59
2022-09-18T10:24:53.429Z,15.21
2022-09-18T10:25:53.417Z,14.95
2022-09-18T10:26:53.400Z,14.84
2022-09-18T10:27:53.418Z,14.65
2022-09-18T10:28:53.378Z,14.50
2022-09-18T10:29:53.371Z,14.39
2022-09-18T10:30:53.366Z,14.39
2022-09-18T10:31:53.437Z,14.34
2022-09-18T10:32:53.347Z,14.24
2022-09-18T10:33:53.367Z,14.21
2022-09-18T10:34:53.320Z,14.14
2022-09-18T10:35:53.312Z,14.04
2022-09-18T10:36:53.293Z,13.98
2022-09-18T10:37:53.292Z,13.96
2022-09-18T10:38:53.272Z,13.95
2022-09-18T10:39:53.336Z,13.95
2022-09-18T10:40:53.253Z,13.98
2022-09-18T10:41:53.244Z,14.06
2022-09-18T10:42:53.223Z,14.12
2022-09-18T10:43:53.222Z,14.20
2022-09-18T10:44:54.911Z,14.31
2022-09-18T10:45:53.227Z,14.35
2022-09-18T10:46:53.236Z,14.43
2022-09-18T10:47:53.183Z,14.54
2022-09-18T10:48:53.165Z,14.64
2022-09-18T10:49:53.156Z,14.69
2022-09-18T10:50:53.143Z,14.74
2022-09-18T10:51:53.156Z,14.75
2022-09-18T10:52:53.126Z,14.80
2022-09-18T10:53:53.117Z,14.86
2022-09-18T10:54:53.097Z,14.90
2022-09-18T10:55:55.896Z,14.87
2022-09-18T10:56:53.079Z,14.91
2022-09-18T10:57:53.107Z,14.87
2022-09-18T10:58:53.061Z,14.81
2022-09-18T10:59:53.049Z,14.74
2022-09-18T11:00:53.104Z,14.49
2022-09-18T11:01:53.057Z,14.39
2022-09-18T11:02:53.022Z,14.38
2022-09-18T11:03:53.030Z,14.64
2022-09-18T11:04:53.012Z,14.94
2022-09-18T11:05:52.990Z,15.20
2022-09-18T11:06:52.980Z,15.31
2022-09-18T11:07:52.962Z,15.56
2022-09-18T11:08:52.952Z,15.78
2022-09-18T11:09:52.979Z,15.88
2022-09-18T11:10:52.933Z,15.86
2022-09-18T11:11:52.928Z,15.85
2022-09-18T11:12:55.729Z,16.07
2022-09-18T11:13:52.893Z,16.14
2022-09-18T11:14:52.883Z,16.37
2022-09-18T11:15:53.850Z,16.42
2022-09-18T11:16:52.865Z,16.06
2022-09-18T11:17:52.854Z,15.86
2022-09-18T11:18:52.843Z,15.86
2022-09-18T11:19:52.833Z,15.79
2022-09-18T11:20:52.835Z,15.54
2022-09-18T11:21:52.847Z,15.52
2022-09-18T11:22:52.814Z,15.56
2022-09-18T11:23:52.788Z,15.72
2022-09-18T11:24:52.789Z,15.82
2022-09-18T11:25:52.771Z,15.93
2022-09-18T11:26:52.767Z,15.97
2022-09-18T11:27:52.789Z,16.11
2022-09-18T11:28:52.740Z,16.12
2022-09-18T11:29:52.738Z,16.00
2022-09-18T11:30:54.169Z,16.15
2022-09-18T11:31:52.793Z,16.22
2022-09-18T11:32:52.702Z,16.31
2022-09-18T11:33:52.718Z,16.58
2022-09-18T11:34:52.681Z,16.53
2022-09-18T11:35:52.660Z,16.59
2022-09-18T11:36:52.661Z,16.56
2022-09-18T11:37:52.643Z,16.33
2022-09-18T11:38:52.642Z,16.16
2022-09-18T11:39:52.673Z,15.70
2022-09-18T11:40:52.613Z,15.41
2022-09-18T11:41:52.605Z,15.24
2022-09-18T11:42:52.594Z,15.05
2022-09-18T11:43:52.581Z,14.90
2022-09-18T11:44:52.574Z,14.90
2022-09-18T11:45:52.588Z,14.81
2022-09-18T11:46:52.598Z,14.62
2022-09-18T11:47:52.539Z,14.47
2022-09-18T11:48:52.536Z,14.38
2022-09-18T11:49:52.516Z,14.27
2022-09-18T11:50:52.506Z,14.16
2022-09-18T11:51:52.530Z,14.09
2022-09-18T11:52:52.487Z,14.04
2022-09-18T11:53:52.474Z,13.99
2022-09-18T11:54:52.466Z,13.94
2022-09-18T11:55:52.462Z,13.96
2022-09-18T11:56:52.447Z,13.99
2022-09-18T11:57:52.460Z,13.96
2022-09-18T11:58:52.426Z,13.94
2022-09-18T11:59:52.410Z,13.89
2022-09-18T12:00:52.409Z,13.84
2022-09-18T12:01:52.453Z,13.89
2022-09-18T12:02:52.471Z,13.95
2022-09-18T12:03:52.401Z,13.96
2022-09-18T12:04:52.360Z,13.96
2022-09-18T12:05:52.393Z,13.99
2022-09-18T12:06:52.340Z,14.01
2022-09-18T12:07:50.966Z,14.10
2022-09-18T12:08:50.956Z,14.10
2022-09-18T12:09:50.966Z,14.13
2022-09-18T12:10:50.934Z,14.14
2022-09-18T12:11:50.923Z,14.14
2022-09-18T12:12:50.913Z,14.17
2022-09-18T12:13:50.893Z,14.20
2022-09-18T12:14:50.885Z,14.29
2022-09-18T12:15:50.988Z,14.35
2022-09-18T12:16:50.863Z,14.38
2022-09-18T12:17:50.850Z,14.44
2022-09-18T12:18:50.842Z,14.49
2022-09-18T12:19:50.829Z,14.47
2022-09-18T12:20:50.820Z,14.50
2022-09-18T12:21:50.850Z,14.56
2022-09-18T12:22:50.798Z,14.62
2022-09-18T12:23:50.786Z,14.56
2022-09-18T12:24:50.775Z,14.56
2022-09-18T12:25:50.760Z,14.64
2022-09-18T12:26:50.753Z,14.68
2022-09-18T12:27:50.790Z,14.83
2022-09-18T12:28:50.729Z,14.98
2022-09-18T12:29:50.712Z,15.08
2022-09-18T12:30:50.712Z,15.27
2022-09-18T12:31:50.720Z,15.39
2022-09-18T12:32:50.682Z,15.61
2022-09-18T12:33:50.701Z,15.79
2022-09-18T12:34:50.661Z,15.81
2022-09-18T12:35:50.644Z,15.84
2022-09-18T12:36:50.643Z,15.81
2022-09-18T12:37:50.620Z,15.68
2022-09-18T12:38:51.291Z,15.59
2022-09-18T12:39:51.372Z,15.35
2022-09-18T12:40:51.269Z,15.23
2022-09-18T12:41:51.253Z,15.28
2022-09-18T12:42:51.240Z,15.28
2022-09-18T12:43:51.222Z,15.17
2022-09-18T12:44:51.220Z,14.99
2022-09-18T12:45:51.258Z,14.91
2022-09-18T12:46:51.197Z,14.88
2022-09-18T12:47:51.179Z,14.75
2022-09-18T12:48:51.228Z,14.74
2022-09-18T12:49:51.159Z,14.71
2022-09-18T12:50:51.155Z,14.67
2022-09-18T12:51:51.629Z,14.67
2022-09-18T12:53:08.599Z,14.68
2022-09-18T12:53:52.117Z,14.64
2022-09-18T12:54:51.106Z,14.62
2022-09-18T12:55:51.104Z,14.78
2022-09-18T12:56:51.075Z,14.84
2022-09-18T12:57:51.096Z,14.84
2022-09-18T12:58:51.054Z,14.83
2022-09-18T12:59:51.044Z,14.86
2022-09-18T13:00:51.086Z,14.72
2022-09-18T13:01:51.033Z,14.78
2022-09-18T13:02:51.582Z,15.06
2022-09-18T13:03:51.061Z,15.20
2022-09-18T13:04:50.988Z,15.38
2022-09-18T13:05:50.979Z,15.63
2022-09-18T13:06:50.966Z,15.89